CheckWX is a tool to help pilots better visualize weather data.  It is not intended as a substitute for an official pre-flight weather briefing.

12:05:31 UTC

KLOR METAR
Lowe AHP (Fort Rucker) Heliport
Fort Rucker Ozark, Alabama, USA
Current

56 mins ago

KLOR 201110Z AUTO 00000KT 10SM FEW003 OVC180 23/23 A3009 RMK AO2 SLP171
Observed
Aug-20 @ 11:10 UTC
Visibility
10 SM
Flight Rules
VFR
Cloud Levels
  • Few at 300' AGL
  • Overcast at 18,000' AGL
Temperature
23°C / 73°F
Dewpoint
23°C / 73°F
Humidity
100%
Altimeter
30.09" Hg
Pressure
1018.92 hPa
Previous

1 hour ago

KLOR 201058Z AUTO 00000KT 10SM OVC180 23/23 A3008 RMK AO2 SLP167 T02290229
Observed
Aug-20 @ 10:58 UTC
Visibility
10 SM
Flight Rules
VFR
Cloud Levels
  • Overcast at 18,000' AGL
Temperature
23°C / 73°F
Dewpoint
23°C / 73°F
Humidity
100%
Altimeter
30.08" Hg
Pressure
1018.62 hPa
Previous

2 hours ago

KLOR 201008Z AUTO 00000KT 10SM SCT008 BKN070 BKN120 OVC140 23/23 A3008 RMK AO2 LTG DSNT E SLP167
Observed
Aug-20 @ 10:08 UTC
Visibility
10 SM
Flight Rules
VFR
Cloud Levels
  • Scattered at 800' AGL
  • Broken at 7,000' AGL
  • Broken at 12,000' AGL
  • Overcast at 14,000' AGL
Temperature
23°C / 73°F
Dewpoint
23°C / 73°F
Humidity
100%
Altimeter
30.08" Hg
Pressure
1018.62 hPa